createdAt,value
2024-01-11T00:00:47.722Z,-2.70
2024-01-11T00:02:19.536Z,-2.67
2024-01-11T00:03:51.174Z,-2.66
2024-01-11T00:05:22.931Z,-2.67
2024-01-11T00:06:54.785Z,-2.65
2024-01-11T00:08:26.540Z,-2.66
2024-01-11T00:09:58.048Z,-2.68
2024-01-11T00:11:29.825Z,-2.69
2024-01-11T00:13:01.360Z,-2.68
2024-01-11T00:14:33.096Z,-2.69
2024-01-11T00:16:05.402Z,-2.74
2024-01-11T00:17:37.387Z,-2.74
2024-01-11T00:19:09.698Z,-2.79
2024-01-11T00:20:41.430Z,-2.84
2024-01-11T00:22:13.142Z,-2.86
2024-01-11T00:23:44.810Z,-2.90
2024-01-11T00:25:16.418Z,-2.96
2024-01-11T00:26:48.047Z,-2.97
2024-01-11T00:28:19.878Z,-3.00
2024-01-11T00:29:51.423Z,-3.00
2024-01-11T00:31:23.644Z,-3.02
2024-01-11T00:32:56.293Z,-3.05
2024-01-11T00:34:28.827Z,-3.06
2024-01-11T00:36:00.432Z,-3.08
2024-01-11T00:37:32.165Z,-3.07
2024-01-11T00:39:03.868Z,-3.07
2024-01-11T00:40:35.610Z,-3.10
2024-01-11T00:42:07.235Z,-3.12
2024-01-11T00:43:38.795Z,-3.12
2024-01-11T00:45:11.602Z,-3.10
2024-01-11T00:46:43.289Z,-3.09
2024-01-11T00:48:15.028Z,-3.11
2024-01-11T00:49:47.044Z,-3.12
2024-01-11T00:51:18.780Z,-3.16
2024-01-11T00:52:50.680Z,-3.19
2024-01-11T00:54:22.325Z,-3.25
2024-01-11T00:55:54.533Z,-3.27
2024-01-11T00:57:26.322Z,-3.27
2024-01-11T00:58:58.160Z,-3.31
2024-01-11T01:00:29.948Z,-3.28
2024-01-11T01:02:01.639Z,-3.26
2024-01-11T01:03:33.581Z,-3.27
2024-01-11T01:05:05.964Z,-3.22
2024-01-11T01:06:38.153Z,-3.14
2024-01-11T01:08:10.009Z,-3.13
2024-01-11T01:09:42.086Z,-3.11
2024-01-11T01:11:14.115Z,-3.15
2024-01-11T01:12:45.724Z,-3.17
2024-01-11T01:14:17.491Z,-3.19
2024-01-11T01:15:49.788Z,-3.21
2024-01-11T01:17:21.907Z,-3.24
2024-01-11T01:18:53.658Z,-3.26
2024-01-11T01:20:25.824Z,-3.26
2024-01-11T01:21:57.711Z,-3.25
2024-01-11T01:23:29.987Z,-3.25
2024-01-11T01:25:01.667Z,-3.30
2024-01-11T01:26:33.505Z,-3.31
2024-01-11T01:28:05.617Z,-3.30
2024-01-11T01:29:38.026Z,-3.26
2024-01-11T01:31:10.054Z,-3.29
2024-01-11T01:32:42.223Z,-3.33
2024-01-11T01:34:16.139Z,-3.35
2024-01-11T01:35:48.327Z,-3.37
2024-01-11T01:37:20.277Z,-3.39
2024-01-11T01:38:52.341Z,-3.35
2024-01-11T01:40:23.986Z,-3.28
2024-01-11T01:41:56.168Z,-3.34
2024-01-11T01:43:28.432Z,-3.37
2024-01-11T01:45:00.369Z,-3.37
2024-01-11T01:46:32.171Z,-3.41
2024-01-11T01:48:04.188Z,-3.45
2024-01-11T01:49:36.368Z,-3.49
2024-01-11T01:51:09.056Z,-3.52
2024-01-11T01:52:41.149Z,-3.55
2024-01-11T01:54:12.872Z,-3.59
2024-01-11T01:55:44.686Z,-3.60
2024-01-11T01:57:17.075Z,-3.62
2024-01-11T01:58:49.127Z,-3.63
2024-01-11T02:00:20.806Z,-3.65
2024-01-11T02:01:53.118Z,-3.61
2024-01-11T02:03:25.541Z,-3.62
2024-01-11T02:04:57.362Z,-3.64
2024-01-11T02:06:31.143Z,-3.66
2024-01-11T02:08:03.067Z,-3.65
2024-01-11T02:09:34.660Z,-3.65
2024-01-11T02:11:06.372Z,-3.69
2024-01-11T02:12:41.322Z,-3.68
2024-01-11T02:14:13.530Z,-3.68
2024-01-11T02:15:46.981Z,-3.71
2024-01-11T02:17:18.669Z,-3.69
2024-01-11T02:18:50.598Z,-3.71
2024-01-11T02:20:22.319Z,-3.71
2024-01-11T02:21:54.574Z,-3.72
2024-01-11T02:23:26.341Z,-3.72
2024-01-11T02:24:59.843Z,-3.73
2024-01-11T02:26:31.492Z,-3.75
2024-01-11T02:28:03.201Z,-3.76
2024-01-11T02:29:35.289Z,-3.77
2024-01-11T02:31:07.534Z,-3.81
2024-01-11T02:32:39.409Z,-3.83
2024-01-11T02:34:11.209Z,-3.83
2024-01-11T02:35:47.668Z,-3.85
2024-01-11T02:37:20.196Z,-3.84
2024-01-11T02:38:51.956Z,-3.82
2024-01-11T02:40:23.507Z,-3.84
2024-01-11T02:41:56.310Z,-3.85
2024-01-11T02:43:27.972Z,-3.84
2024-01-11T02:44:59.655Z,-3.85
2024-01-11T02:46:31.750Z,-3.86
2024-01-11T02:48:04.379Z,-3.87
2024-01-11T02:49:37.511Z,-3.87
2024-01-11T02:51:09.259Z,-3.87
2024-01-11T02:52:40.831Z,-3.88
2024-01-11T02:54:12.482Z,-3.89
2024-01-11T02:55:44.066Z,-3.92
2024-01-11T02:57:15.716Z,-3.91
2024-01-11T02:58:47.377Z,-3.96
2024-01-11T03:00:19.460Z,-3.97
2024-01-11T03:01:51.713Z,-3.93
2024-01-11T03:03:23.398Z,-3.92
2024-01-11T03:04:55.764Z,-3.93
2024-01-11T03:06:27.495Z,-3.95
2024-01-11T03:07:59.215Z,-3.99
2024-01-11T03:09:31.367Z,-4.02
2024-01-11T03:11:03.176Z,-4.00
2024-01-11T03:12:34.896Z,-4.05
2024-01-11T03:14:06.601Z,-4.09
2024-01-11T03:15:38.251Z,-4.11
2024-01-11T03:17:10.031Z,-4.12
2024-01-11T03:18:41.789Z,-4.13
2024-01-11T03:20:13.742Z,-4.13
2024-01-11T03:21:47.507Z,-4.17
2024-01-11T03:23:19.185Z,-4.16
2024-01-11T03:24:51.952Z,-4.18
2024-01-11T03:26:23.596Z,-4.20
2024-01-11T03:27:55.279Z,-4.24
2024-01-11T03:29:27.060Z,-4.28
2024-01-11T03:30:59.008Z,-4.28
2024-01-11T03:32:30.845Z,-4.30
2024-01-11T03:34:02.533Z,-4.33
2024-01-11T03:35:34.247Z,-4.35
2024-01-11T03:37:06.459Z,-4.35
2024-01-11T03:38:38.337Z,-4.36
2024-01-11T03:40:10.431Z,-4.35
2024-01-11T03:41:48.444Z,-4.32
2024-01-11T03:43:20.514Z,-4.31
2024-01-11T03:44:52.090Z,-4.29
2024-01-11T03:46:23.687Z,-4.28
2024-01-11T03:47:55.490Z,-4.26
2024-01-11T03:49:27.559Z,-4.28
2024-01-11T03:50:59.202Z,-4.24
2024-01-11T03:52:30.848Z,-4.21
2024-01-11T03:54:02.513Z,-4.22
2024-01-11T03:55:34.989Z,-4.22
2024-01-11T03:57:07.592Z,-4.23
2024-01-11T03:58:40.844Z,-4.22
2024-01-11T04:00:12.895Z,-4.25
2024-01-11T04:01:44.656Z,-4.25
2024-01-11T04:03:16.314Z,-4.25
2024-01-11T04:04:47.980Z,-4.25
2024-01-11T04:06:25.836Z,-4.26
2024-01-11T04:07:57.739Z,-4.25
2024-01-11T04:09:29.423Z,-4.26
2024-01-11T04:11:03.260Z,-4.29
2024-01-11T04:12:34.820Z,-4.30
2024-01-11T04:14:07.182Z,-4.31
2024-01-11T04:15:39.089Z,-4.30
2024-01-11T04:17:10.959Z,-4.30
2024-01-11T04:18:42.829Z,-4.30
2024-01-11T04:20:14.925Z,-4.27
2024-01-11T04:21:46.913Z,-4.27
2024-01-11T04:23:19.035Z,-4.27
2024-01-11T04:24:50.979Z,-4.28
2024-01-11T04:26:22.868Z,-4.30
2024-01-11T04:27:55.129Z,-4.31
2024-01-11T04:29:26.835Z,-4.30
2024-01-11T04:30:58.630Z,-4.33
2024-01-11T04:32:30.379Z,-4.36
2024-01-11T04:34:01.988Z,-4.38
2024-01-11T04:35:33.711Z,-4.43
2024-01-11T04:37:05.573Z,-4.44
2024-01-11T04:38:39.061Z,-4.48
2024-01-11T04:40:11.081Z,-4.50
2024-01-11T04:41:42.797Z,-4.52
2024-01-11T04:43:14.456Z,-4.52
2024-01-11T04:44:46.287Z,-4.53
2024-01-11T04:46:18.294Z,-4.56
2024-01-11T04:47:52.270Z,-4.56
2024-01-11T04:49:24.342Z,-4.57
2024-01-11T04:50:56.181Z,-4.58
2024-01-11T04:52:28.002Z,-4.54
2024-01-11T04:54:00.054Z,-4.52
2024-01-11T04:55:31.629Z,-4.55
2024-01-11T04:57:04.646Z,-4.56
2024-01-11T04:58:36.526Z,-4.61
2024-01-11T05:00:08.750Z,-4.63
2024-01-11T05:01:41.146Z,-4.63
2024-01-11T05:03:13.123Z,-4.66
2024-01-11T05:04:44.838Z,-4.66
2024-01-11T05:06:19.870Z,-4.70
2024-01-11T05:07:51.994Z,-4.72
2024-01-11T05:09:23.785Z,-4.77
2024-01-11T05:10:55.723Z,-4.76
2024-01-11T05:12:27.434Z,-4.77
2024-01-11T05:13:59.178Z,-4.71
2024-01-11T05:15:31.340Z,-4.67
2024-01-11T05:17:03.624Z,-4.64
2024-01-11T05:18:35.662Z,-4.67
2024-01-11T05:20:07.801Z,-4.69
2024-01-11T05:21:39.764Z,-4.73
2024-01-11T05:23:11.854Z,-4.76
2024-01-11T05:24:43.640Z,-4.78
2024-01-11T05:26:15.918Z,-4.78
2024-01-11T05:27:47.724Z,-4.76
2024-01-11T05:29:19.573Z,-4.77
2024-01-11T05:30:51.265Z,-4.80
2024-01-11T05:32:23.806Z,-4.82
2024-01-11T05:33:55.947Z,-4.83
2024-01-11T05:35:28.957Z,-4.84
2024-01-11T05:37:01.231Z,-4.85
2024-01-11T05:38:33.242Z,-4.84
2024-01-11T05:40:05.272Z,-4.87
2024-01-11T05:41:37.108Z,-4.90
2024-01-11T05:43:08.904Z,-4.89
2024-01-11T05:44:40.620Z,-4.88
2024-01-11T05:46:12.928Z,-4.90
2024-01-11T05:47:45.834Z,-4.92
2024-01-11T05:49:17.560Z,-4.93
2024-01-11T05:50:49.368Z,-4.93
2024-01-11T05:52:21.091Z,-4.95
2024-01-11T05:53:52.946Z,-4.95
2024-01-11T05:55:24.494Z,-4.94
2024-01-11T05:57:00.612Z,-4.95
2024-01-11T05:58:32.300Z,-4.96
2024-01-11T06:00:04.681Z,-4.96
2024-01-11T06:01:41.370Z,-4.98
2024-01-11T06:03:16.714Z,-4.97
2024-01-11T06:04:49.502Z,-4.97
2024-01-11T06:06:21.711Z,-4.98
2024-01-11T06:07:54.018Z,-4.99
2024-01-11T06:09:25.681Z,-4.98
2024-01-11T06:10:57.624Z,-4.97
2024-01-11T06:12:29.282Z,-4.95
2024-01-11T06:14:02.707Z,-4.94
2024-01-11T06:15:34.422Z,-4.94
2024-01-11T06:17:06.502Z,-4.91
2024-01-11T06:18:38.277Z,-4.88
2024-01-11T06:20:11.411Z,-4.87
2024-01-11T06:21:43.235Z,-4.88
2024-01-11T06:23:15.071Z,-4.89
2024-01-11T06:24:46.932Z,-4.89
2024-01-11T06:26:18.799Z,-4.88
2024-01-11T06:27:50.577Z,-4.85
2024-01-11T06:29:22.334Z,-4.80
2024-01-11T06:30:54.933Z,-4.74
2024-01-11T06:32:26.724Z,-4.69
2024-01-11T06:33:58.948Z,-4.62
2024-01-11T06:35:30.643Z,-4.54
2024-01-11T06:37:04.287Z,-4.44
2024-01-11T06:38:35.950Z,-4.30
2024-01-11T06:40:09.765Z,-4.18
2024-01-11T06:41:41.554Z,-4.07
2024-01-11T06:43:13.623Z,-3.94
2024-01-11T06:44:45.287Z,-3.84
2024-01-11T06:46:21.687Z,-3.69
2024-01-11T06:47:53.971Z,-3.64
2024-01-11T06:49:27.478Z,-3.56
2024-01-11T06:51:02.166Z,-3.51
2024-01-11T06:52:34.546Z,-3.49
2024-01-11T06:54:06.256Z,-3.39
2024-01-11T06:55:37.787Z,-3.31
2024-01-11T06:57:09.479Z,-3.20
2024-01-11T06:58:41.385Z,-3.08
2024-01-11T07:00:14.813Z,-3.05
2024-01-11T07:01:46.708Z,-2.95
2024-01-11T07:03:18.900Z,-2.88
2024-01-11T07:04:50.950Z,-2.85
2024-01-11T07:06:22.744Z,-2.73
2024-01-11T07:07:54.860Z,-2.60
2024-01-11T07:09:26.661Z,-2.47
2024-01-11T07:10:58.688Z,-2.36
2024-01-11T07:12:30.583Z,-2.27
2024-01-11T07:14:02.163Z,-2.16
2024-01-11T07:15:33.772Z,-2.02
2024-01-11T07:17:06.130Z,-1.95
2024-01-11T07:18:38.093Z,-1.83
2024-01-11T07:20:10.606Z,-1.66
2024-01-11T07:21:42.151Z,-1.48
2024-01-11T07:23:13.774Z,-1.33
2024-01-11T07:24:45.482Z,-1.17
2024-01-11T07:26:17.099Z,-1.04
2024-01-11T07:27:48.901Z,-0.93
2024-01-11T07:29:20.688Z,-0.85
2024-01-11T07:30:54.898Z,-0.75
2024-01-11T07:32:26.588Z,-0.62
2024-01-11T07:33:58.792Z,-0.52
2024-01-11T07:35:31.242Z,-0.60
2024-01-11T07:37:02.996Z,-0.55
2024-01-11T07:38:35.340Z,-0.51
2024-01-11T07:40:11.269Z,-0.61
2024-01-11T07:41:43.510Z,-0.56
2024-01-11T07:43:15.287Z,-0.63
2024-01-11T07:44:47.173Z,-0.71
2024-01-11T07:46:18.934Z,-0.73
2024-01-11T07:47:50.736Z,-0.75
2024-01-11T07:49:22.525Z,-0.73
2024-01-11T07:50:54.415Z,-0.78
2024-01-11T07:52:26.584Z,-0.83
2024-01-11T07:53:58.442Z,-0.77
2024-01-11T07:55:30.062Z,-0.76
2024-01-11T07:57:04.176Z,-0.74
2024-01-11T07:58:38.713Z,-0.60
2024-01-11T08:00:10.551Z,-0.54
2024-01-11T08:01:42.416Z,-0.47
2024-01-11T08:03:14.277Z,-0.48
2024-01-11T08:04:47.158Z,-0.42
2024-01-11T08:06:19.559Z,-0.33
2024-01-11T08:07:51.728Z,-0.22
2024-01-11T08:09:23.676Z,-0.12
2024-01-11T08:10:56.150Z,-0.01
2024-01-11T08:12:27.937Z,0.16
2024-01-11T08:14:00.432Z,0.26
2024-01-11T08:15:32.306Z,0.31
2024-01-11T08:17:06.081Z,0.39
2024-01-11T08:18:38.654Z,0.48
2024-01-11T08:20:10.726Z,0.62
2024-01-11T08:21:42.846Z,0.72
2024-01-11T08:23:14.598Z,0.76
2024-01-11T08:24:46.500Z,0.79
2024-01-11T08:26:20.489Z,0.88
2024-01-11T08:27:52.318Z,0.93
2024-01-11T08:29:24.000Z,0.97
2024-01-11T08:30:57.589Z,0.87
2024-01-11T08:32:32.265Z,0.84
2024-01-11T08:34:05.310Z,0.92
2024-01-11T08:35:37.317Z,1.01
2024-01-11T08:37:09.304Z,1.01
2024-01-11T08:38:42.233Z,1.03
2024-01-11T08:40:13.930Z,1.03
2024-01-11T08:41:45.649Z,1.09
2024-01-11T08:43:17.561Z,1.21
2024-01-11T08:44:49.191Z,1.28
2024-01-11T08:46:27.322Z,1.33
2024-01-11T08:47:59.265Z,1.24
2024-01-11T08:49:31.188Z,1.16
2024-01-11T08:51:02.911Z,1.17
2024-01-11T08:52:35.105Z,1.20
2024-01-11T08:54:10.145Z,1.24
2024-01-11T08:55:43.314Z,1.37
2024-01-11T08:57:16.361Z,1.41
2024-01-11T08:58:49.276Z,1.43
2024-01-11T09:00:23.668Z,1.47
2024-01-11T09:02:02.594Z,1.56
2024-01-11T09:03:42.620Z,1.63
2024-01-11T09:05:17.458Z,1.70
2024-01-11T09:06:49.502Z,1.73
2024-01-11T09:08:21.181Z,1.80
2024-01-11T09:09:57.016Z,1.84
2024-01-11T09:11:33.109Z,1.82
2024-01-11T09:13:05.197Z,1.76
2024-01-11T09:14:36.866Z,1.76
2024-01-11T09:16:08.565Z,1.73
2024-01-11T09:17:41.176Z,1.79
2024-01-11T09:19:13.622Z,1.91
2024-01-11T09:20:45.378Z,2.03
2024-01-11T09:22:17.374Z,2.17
2024-01-11T09:23:49.062Z,2.27
2024-01-11T09:25:20.808Z,2.34
2024-01-11T09:26:52.497Z,2.37
2024-01-11T09:28:24.120Z,2.44
2024-01-11T09:29:57.333Z,2.40
2024-01-11T09:31:29.168Z,2.41
2024-01-11T09:33:01.506Z,2.41
2024-01-11T09:34:33.668Z,2.45
2024-01-11T09:36:05.672Z,2.50
2024-01-11T09:37:37.506Z,2.59
2024-01-11T09:39:09.814Z,2.60
2024-01-11T09:40:41.413Z,2.72
2024-01-11T09:42:13.976Z,2.80
2024-01-11T09:43:45.578Z,2.81
2024-01-11T09:45:17.638Z,2.83
2024-01-11T09:46:52.380Z,3.01
2024-01-11T09:48:24.540Z,3.11
2024-01-11T09:49:56.427Z,3.08
2024-01-11T09:51:28.121Z,3.09
2024-01-11T09:52:59.764Z,3.10
2024-01-11T09:54:31.469Z,3.16
2024-01-11T09:56:03.111Z,3.22
2024-01-11T09:57:34.960Z,3.27
2024-01-11T09:59:07.516Z,3.26
2024-01-11T10:00:39.139Z,3.27
2024-01-11T10:02:10.897Z,3.25
2024-01-11T10:03:47.460Z,3.34
2024-01-11T10:05:19.376Z,3.48
2024-01-11T10:06:52.474Z,3.49
2024-01-11T10:08:24.139Z,3.54
2024-01-11T10:09:55.838Z,3.61
2024-01-11T10:11:27.697Z,3.65
2024-01-11T10:12:59.378Z,3.77
2024-01-11T10:14:31.621Z,3.79
2024-01-11T10:16:10.606Z,3.74
2024-01-11T10:17:46.064Z,3.70
2024-01-11T10:19:18.507Z,3.80
2024-01-11T10:20:50.582Z,3.85
2024-01-11T10:22:23.217Z,3.93
2024-01-11T10:23:56.759Z,3.95
2024-01-11T10:25:28.363Z,4.04
2024-01-11T10:27:02.469Z,4.12
2024-01-11T10:28:37.529Z,4.22
2024-01-11T10:30:09.303Z,4.27
2024-01-11T10:31:40.849Z,4.28
2024-01-11T10:33:12.507Z,4.34
2024-01-11T10:34:44.319Z,4.37
2024-01-11T10:36:16.124Z,4.45
2024-01-11T10:37:47.849Z,4.45
2024-01-11T10:39:26.860Z,4.50
2024-01-11T10:41:00.272Z,4.41
2024-01-11T10:42:32.401Z,4.41
2024-01-11T10:44:04.476Z,4.35
2024-01-11T10:45:40.291Z,4.32
2024-01-11T10:47:11.963Z,4.43
2024-01-11T10:48:44.941Z,4.57
2024-01-11T10:50:16.669Z,4.76
2024-01-11T10:51:54.346Z,4.80
2024-01-11T10:53:45.509Z,4.84
2024-01-11T10:55:17.304Z,4.92
2024-01-11T10:56:48.982Z,5.03
2024-01-11T10:58:22.152Z,5.05
2024-01-11T10:59:53.744Z,5.10
2024-01-11T11:01:25.531Z,5.13
2024-01-11T11:02:57.515Z,5.10
2024-01-11T11:04:29.073Z,5.15
2024-01-11T11:06:00.802Z,5.31
2024-01-11T11:07:33.283Z,5.29
2024-01-11T11:09:05.215Z,5.31
2024-01-11T11:10:36.842Z,5.35
2024-01-11T11:12:08.867Z,5.43
2024-01-11T11:13:43.670Z,5.58
2024-01-11T11:15:15.236Z,5.69
2024-01-11T11:16:47.199Z,5.90
2024-01-11T11:18:19.576Z,6.12
2024-01-11T11:19:51.163Z,6.33
2024-01-11T11:21:22.764Z,6.48
2024-01-11T11:23:07.226Z,6.48
2024-01-11T11:24:39.040Z,6.47
2024-01-11T11:26:15.025Z,6.53
2024-01-11T11:27:46.599Z,6.57
2024-01-11T11:29:19.203Z,6.60
2024-01-11T11:30:53.517Z,6.53
2024-01-11T11:32:40.470Z,6.62
2024-01-11T11:34:12.924Z,6.60
2024-01-11T11:35:44.647Z,6.73
2024-01-11T11:37:23.747Z,6.76
2024-01-11T11:39:01.255Z,6.91
2024-01-11T11:40:33.168Z,7.04
2024-01-11T11:42:08.653Z,7.02
2024-01-11T11:43:40.232Z,7.05
2024-01-11T11:45:12.965Z,7.10
2024-01-11T11:46:46.377Z,7.20
2024-01-11T11:48:31.044Z,7.25
2024-01-11T11:50:12.961Z,7.29
2024-01-11T11:51:44.603Z,7.29
2024-01-11T11:53:16.288Z,7.42
2024-01-11T11:54:47.883Z,7.54
2024-01-11T11:56:20.056Z,7.66
2024-01-11T11:57:52.183Z,7.57
2024-01-11T11:59:23.734Z,7.57
2024-01-11T12:00:56.100Z,7.66
2024-01-11T12:02:28.013Z,7.76
2024-01-11T12:03:59.638Z,7.80
2024-01-11T12:05:31.320Z,7.84
2024-01-11T12:07:03.627Z,7.94
2024-01-11T12:08:35.681Z,8.08
2024-01-11T12:10:07.800Z,8.23
2024-01-11T12:11:39.429Z,8.22
2024-01-11T12:13:11.043Z,8.21
2024-01-11T12:14:42.805Z,8.17
2024-01-11T12:16:14.454Z,8.24
2024-01-11T12:17:47.296Z,8.38
2024-01-11T12:19:21.558Z,8.46
2024-01-11T12:20:56.279Z,8.38
2024-01-11T12:22:28.130Z,8.29
2024-01-11T12:23:59.742Z,8.41
2024-01-11T12:25:31.363Z,8.47
2024-01-11T12:27:03.112Z,8.57
2024-01-11T12:28:35.066Z,8.64
2024-01-11T12:30:08.430Z,8.62
2024-01-11T12:31:40.199Z,8.52
2024-01-11T12:33:12.193Z,8.49
2024-01-11T12:34:44.548Z,8.42
2024-01-11T12:36:16.937Z,8.41
2024-01-11T12:38:00.851Z,8.41
2024-01-11T12:39:35.516Z,8.37
2024-01-11T12:41:07.648Z,8.31
2024-01-11T12:42:39.600Z,8.23
2024-01-11T12:44:11.312Z,8.26
2024-01-11T12:45:43.345Z,8.31
2024-01-11T12:47:14.984Z,8.31
2024-01-11T12:48:46.824Z,8.38
2024-01-11T12:50:18.842Z,8.35
2024-01-11T12:51:51.297Z,8.38
2024-01-11T12:53:23.202Z,8.43
2024-01-11T12:54:54.838Z,8.37
2024-01-11T12:56:26.540Z,8.39
2024-01-11T12:58:07.944Z,8.54
2024-01-11T12:59:41.273Z,8.52
2024-01-11T13:01:13.817Z,8.62
2024-01-11T13:02:52.236Z,8.73
2024-01-11T13:04:24.360Z,8.78
2024-01-11T13:05:56.042Z,8.87
2024-01-11T13:07:27.695Z,8.94
2024-01-11T13:09:01.545Z,9.06
2024-01-11T13:10:33.451Z,9.04
2024-01-11T13:12:05.430Z,8.99
2024-01-11T13:13:37.701Z,8.94
2024-01-11T13:15:09.438Z,8.91
2024-01-11T13:16:41.202Z,8.94
2024-01-11T13:18:12.855Z,8.96
2024-01-11T13:19:45.000Z,9.03
2024-01-11T13:21:16.786Z,9.18
2024-01-11T13:22:48.737Z,9.25
2024-01-11T13:24:20.450Z,9.31
2024-01-11T13:25:52.156Z,9.29
2024-01-11T13:27:24.209Z,9.33
2024-01-11T13:28:56.051Z,9.26
2024-01-11T13:30:27.706Z,9.14
2024-01-11T13:32:02.053Z,9.16
2024-01-11T13:33:37.595Z,9.28
2024-01-11T13:35:10.285Z,9.38
2024-01-11T13:36:41.903Z,9.45
2024-01-11T13:38:13.866Z,9.52
2024-01-11T13:39:45.654Z,9.53
2024-01-11T13:41:18.597Z,9.61
2024-01-11T13:42:50.786Z,9.61
2024-01-11T13:44:24.766Z,9.63
2024-01-11T13:45:57.030Z,9.66
2024-01-11T13:47:28.868Z,9.74
2024-01-11T13:49:00.988Z,9.76
2024-01-11T13:50:33.776Z,9.78
2024-01-11T13:52:06.075Z,9.82
2024-01-11T13:53:37.979Z,9.83
2024-01-11T13:55:11.561Z,9.90
2024-01-11T13:56:43.159Z,9.92
2024-01-11T13:58:15.029Z,9.91
2024-01-11T13:59:46.664Z,9.84
2024-01-11T14:01:18.284Z,9.77
2024-01-11T14:02:50.212Z,9.70
2024-01-11T14:04:26.554Z,9.63
2024-01-11T14:05:58.600Z,9.51
2024-01-11T14:07:31.664Z,9.46
2024-01-11T14:09:05.834Z,9.38
2024-01-11T14:10:40.951Z,9.34
2024-01-11T14:12:12.653Z,9.34
2024-01-11T14:13:52.909Z,9.31
2024-01-11T14:15:27.321Z,9.28
2024-01-11T14:16:58.925Z,9.21
2024-01-11T14:18:30.969Z,9.12
2024-01-11T14:20:04.467Z,9.06
2024-01-11T14:21:37.837Z,9.02
2024-01-11T14:23:09.969Z,9.00
2024-01-11T14:24:41.986Z,8.92
2024-01-11T14:26:14.040Z,8.83
2024-01-11T14:27:45.919Z,8.80
2024-01-11T14:29:17.632Z,8.77
2024-01-11T14:30:49.930Z,8.74
2024-01-11T14:32:29.503Z,8.70
2024-01-11T14:34:05.851Z,8.65
2024-01-11T14:35:37.564Z,8.59
2024-01-11T14:37:09.430Z,8.54
2024-01-11T14:38:41.276Z,8.49
2024-01-11T14:40:12.990Z,8.45
2024-01-11T14:41:44.775Z,8.40
2024-01-11T14:43:16.698Z,8.35
2024-01-11T14:44:48.283Z,8.27
2024-01-11T14:46:21.242Z,8.19
2024-01-11T14:47:52.987Z,8.11
2024-01-11T14:49:26.684Z,8.03
2024-01-11T14:50:58.742Z,7.91
2024-01-11T14:52:30.371Z,7.79
2024-01-11T14:54:01.978Z,7.65
2024-01-11T14:55:33.602Z,7.50
2024-01-11T14:57:06.200Z,7.33
2024-01-11T14:58:37.753Z,7.16
2024-01-11T15:00:10.004Z,6.98
2024-01-11T15:01:41.607Z,6.81
2024-01-11T15:03:13.147Z,6.65
2024-01-11T15:04:44.736Z,6.51
2024-01-11T15:06:16.461Z,6.42
2024-01-11T15:07:48.140Z,6.37
2024-01-11T15:09:19.786Z,6.28
2024-01-11T15:10:51.367Z,6.17
2024-01-11T15:12:23.438Z,6.06
2024-01-11T15:13:55.142Z,5.97
2024-01-11T15:15:27.085Z,5.90
2024-01-11T15:16:59.520Z,5.82
2024-01-11T15:18:31.370Z,5.73
2024-01-11T15:20:04.627Z,5.62
2024-01-11T15:21:38.229Z,5.54
2024-01-11T15:23:11.024Z,5.45
2024-01-11T15:24:43.857Z,5.35
2024-01-11T15:26:15.576Z,5.25
2024-01-11T15:27:47.257Z,5.15
2024-01-11T15:29:19.231Z,5.08
2024-01-11T15:30:51.771Z,5.00
2024-01-11T15:32:24.072Z,4.94
2024-01-11T15:33:56.438Z,4.87
2024-01-11T15:35:28.504Z,4.79
2024-01-11T15:37:00.032Z,4.71
2024-01-11T15:38:31.826Z,4.68
2024-01-11T15:40:05.121Z,4.60
2024-01-11T15:41:36.890Z,4.46
2024-01-11T15:43:08.511Z,4.36
2024-01-11T15:44:41.028Z,4.33
2024-01-11T15:46:13.156Z,4.27
2024-01-11T15:47:44.863Z,4.24
2024-01-11T15:49:16.472Z,4.20
2024-01-11T15:50:48.215Z,4.17
2024-01-11T15:52:19.890Z,4.09
2024-01-11T15:53:51.674Z,4.06
2024-01-11T15:55:23.268Z,4.04
2024-01-11T15:56:55.717Z,4.02
2024-01-11T15:58:27.786Z,4.00
2024-01-11T15:59:59.642Z,3.98
2024-01-11T16:01:31.580Z,3.97
2024-01-11T16:03:03.818Z,3.94
2024-01-11T16:04:35.982Z,3.87
2024-01-11T16:06:07.700Z,3.83
2024-01-11T16:07:39.634Z,3.77
2024-01-11T16:09:11.838Z,3.75
2024-01-11T16:10:43.442Z,3.71
2024-01-11T16:12:15.021Z,3.69
2024-01-11T16:13:47.449Z,3.65
2024-01-11T16:15:19.247Z,3.65
2024-01-11T16:16:50.802Z,3.63
2024-01-11T16:18:23.596Z,3.61
2024-01-11T16:19:55.567Z,3.61
2024-01-11T16:21:32.595Z,3.61
2024-01-11T16:23:04.422Z,3.58
2024-01-11T16:24:36.185Z,3.61
2024-01-11T16:26:09.202Z,3.59
2024-01-11T16:27:41.333Z,3.57
2024-01-11T16:29:13.015Z,3.57
2024-01-11T16:30:46.549Z,3.59
2024-01-11T16:32:19.179Z,3.61
2024-01-11T16:33:50.814Z,3.64
2024-01-11T16:35:24.465Z,3.69
2024-01-11T16:36:56.481Z,3.65
2024-01-11T16:38:28.136Z,3.55
2024-01-11T16:40:00.106Z,3.47
2024-01-11T16:41:31.806Z,3.39
2024-01-11T16:43:03.890Z,3.34
2024-01-11T16:44:35.863Z,3.31
2024-01-11T16:46:07.546Z,3.25
2024-01-11T16:47:39.834Z,3.20
2024-01-11T16:49:12.101Z,3.16
2024-01-11T16:50:44.030Z,3.20
2024-01-11T16:52:15.638Z,3.17
2024-01-11T16:53:47.698Z,3.14
2024-01-11T16:55:19.568Z,3.05
2024-01-11T16:56:53.018Z,3.07
2024-01-11T16:58:25.567Z,3.04
2024-01-11T16:59:57.425Z,2.98
2024-01-11T17:01:29.458Z,2.92
2024-01-11T17:03:01.838Z,2.86
2024-01-11T17:04:33.575Z,2.81
2024-01-11T17:06:05.931Z,2.77
2024-01-11T17:07:37.946Z,2.69
2024-01-11T17:09:09.570Z,2.67
2024-01-11T17:10:41.309Z,2.69
2024-01-11T17:12:13.245Z,2.68
2024-01-11T17:13:45.059Z,2.66
2024-01-11T17:15:17.143Z,2.67
2024-01-11T17:16:48.824Z,2.62
2024-01-11T17:18:21.359Z,2.58
2024-01-11T17:19:53.514Z,2.57
2024-01-11T17:21:25.758Z,2.55
2024-01-11T17:22:57.806Z,2.55
2024-01-11T17:24:31.414Z,2.54
2024-01-11T17:26:05.514Z,2.54
2024-01-11T17:27:37.215Z,2.58
2024-01-11T17:29:09.455Z,2.60
2024-01-11T17:30:41.122Z,2.54
2024-01-11T17:32:12.918Z,2.54
2024-01-11T17:33:47.912Z,2.54
2024-01-11T17:35:21.147Z,2.56
2024-01-11T17:36:52.934Z,2.53
2024-01-11T17:38:25.752Z,2.53
2024-01-11T17:39:57.525Z,2.53
2024-01-11T17:41:29.156Z,2.54
2024-01-11T17:43:01.309Z,2.55
2024-01-11T17:44:33.235Z,2.52
2024-01-11T17:46:05.867Z,2.54
2024-01-11T17:47:37.807Z,2.51
2024-01-11T17:49:10.139Z,2.50
2024-01-11T17:50:41.996Z,2.47
2024-01-11T17:52:13.963Z,2.44
2024-01-11T17:53:47.779Z,2.40
2024-01-11T17:55:19.693Z,2.37
2024-01-11T17:56:52.205Z,2.40
2024-01-11T17:58:24.813Z,2.39
2024-01-11T17:59:57.089Z,2.41
2024-01-11T18:01:29.479Z,2.43
2024-01-11T18:03:01.091Z,2.46
2024-01-11T18:04:32.827Z,2.50
2024-01-11T18:06:04.650Z,2.50
2024-01-11T18:07:36.423Z,2.53
2024-01-11T18:09:09.053Z,2.49
2024-01-11T18:10:41.019Z,2.51
2024-01-11T18:12:12.817Z,2.45
2024-01-11T18:13:44.761Z,2.41
2024-01-11T18:15:16.536Z,2.35
2024-01-11T18:16:48.396Z,2.34
2024-01-11T18:18:20.163Z,2.31
2024-01-11T18:19:51.993Z,2.30
2024-01-11T18:21:23.832Z,2.29
2024-01-11T18:22:55.707Z,2.30
2024-01-11T18:24:27.411Z,2.31
2024-01-11T18:25:59.651Z,2.27
2024-01-11T18:27:31.385Z,2.26
2024-01-11T18:29:03.139Z,2.24
2024-01-11T18:30:34.856Z,2.24
2024-01-11T18:32:06.982Z,2.24
2024-01-11T18:33:38.649Z,2.22
2024-01-11T18:35:10.715Z,2.22
2024-01-11T18:36:45.832Z,2.22
2024-01-11T18:38:19.902Z,2.21
2024-01-11T18:39:51.616Z,2.19
2024-01-11T18:41:23.460Z,2.15
2024-01-11T18:42:56.065Z,2.15
2024-01-11T18:44:27.917Z,2.12
2024-01-11T18:45:59.894Z,2.09
2024-01-11T18:47:32.925Z,2.07
2024-01-11T18:49:04.739Z,2.08
2024-01-11T18:50:36.913Z,2.06
2024-01-11T18:52:08.456Z,2.08
2024-01-11T18:53:41.811Z,2.09
2024-01-11T18:55:17.335Z,2.09
2024-01-11T18:56:50.449Z,2.04
2024-01-11T18:58:22.115Z,2.04
2024-01-11T18:59:56.326Z,2.05
2024-01-11T19:01:29.856Z,2.06
2024-01-11T19:03:01.577Z,2.01
2024-01-11T19:04:34.208Z,1.96
2024-01-11T19:06:06.349Z,1.96
2024-01-11T19:07:38.280Z,1.96
2024-01-11T19:09:11.155Z,2.00
2024-01-11T19:10:43.193Z,1.97
2024-01-11T19:12:14.826Z,1.96
2024-01-11T19:13:46.362Z,2.00
2024-01-11T19:15:20.249Z,1.99
2024-01-11T19:16:53.597Z,1.91
2024-01-11T19:18:25.566Z,1.87
2024-01-11T19:19:57.594Z,1.91
2024-01-11T19:21:29.307Z,1.89
2024-01-11T19:23:02.361Z,1.87
2024-01-11T19:24:35.932Z,1.87
2024-01-11T19:26:09.941Z,1.89
2024-01-11T19:27:41.690Z,1.88
2024-01-11T19:29:13.887Z,1.87
2024-01-11T19:30:45.775Z,1.87
2024-01-11T19:32:17.783Z,1.86
2024-01-11T19:33:49.533Z,1.81
2024-01-11T19:35:21.335Z,1.81
2024-01-11T19:36:53.553Z,1.82
2024-01-11T19:38:25.892Z,1.82
2024-01-11T19:39:57.550Z,1.77
2024-01-11T19:41:29.392Z,1.76
2024-01-11T19:43:01.381Z,1.75
2024-01-11T19:44:33.236Z,1.82
2024-01-11T19:46:04.957Z,1.80
2024-01-11T19:47:38.690Z,1.81
2024-01-11T19:49:11.018Z,1.81
2024-01-11T19:50:44.175Z,1.82
2024-01-11T19:52:16.367Z,1.79
2024-01-11T19:53:48.137Z,1.79
2024-01-11T19:55:20.152Z,1.77
2024-01-11T19:56:51.750Z,1.75
2024-01-11T19:58:24.247Z,1.75
2024-01-11T19:59:56.222Z,1.75
2024-01-11T20:01:28.003Z,1.70
2024-01-11T20:02:59.906Z,1.66
2024-01-11T20:04:33.614Z,1.63
2024-01-11T20:06:05.523Z,1.57
2024-01-11T20:07:37.625Z,1.53
2024-01-11T20:09:09.359Z,1.45
2024-01-11T20:10:41.361Z,1.42
2024-01-11T20:12:12.896Z,1.38
2024-01-11T20:13:44.461Z,1.35